createdAt,value
2023-10-12T00:01:27.296Z,11.80
2023-10-12T00:06:31.688Z,9.20
2023-10-12T00:11:47.177Z,12.60
2023-10-12T00:16:49.979Z,9.60
2023-10-12T00:22:01.516Z,12.50
2023-10-12T00:27:04.862Z,11.90
2023-10-12T00:32:14.433Z,12.20
2023-10-12T00:37:16.394Z,12.10
2023-10-12T00:42:19.541Z,15.10
2023-10-12T00:47:45.018Z,12.70
2023-10-12T00:52:55.078Z,12.90
2023-10-12T00:57:56.883Z,11.40
2023-10-12T01:08:20.123Z,10.50
2023-10-12T01:13:22.026Z,14.90
2023-10-12T01:18:29.656Z,11.00
2023-10-12T01:23:33.594Z,14.40
2023-10-12T01:28:36.081Z,11.80
2023-10-12T01:33:42.747Z,15.90
2023-10-12T01:38:48.355Z,13.80
2023-10-12T01:43:50.769Z,15.30
2023-10-12T01:48:53.521Z,12.40
2023-10-12T01:53:56.622Z,13.00
2023-10-12T01:58:58.386Z,19.00
2023-10-12T02:04:03.537Z,16.40
2023-10-12T02:09:10.010Z,13.50
2023-10-12T02:14:13.733Z,14.10
2023-10-12T02:19:26.428Z,15.90
2023-10-12T02:24:28.557Z,17.00
2023-10-12T02:34:42.591Z,16.70
2023-10-12T02:39:44.937Z,13.60
2023-10-12T02:44:49.771Z,13.20
2023-10-12T02:50:08.980Z,13.50
2023-10-12T02:55:24.111Z,18.70
2023-10-12T03:00:45.110Z,10.30
2023-10-12T03:05:50.087Z,14.10
2023-10-12T03:11:01.652Z,17.10
2023-10-12T03:16:21.303Z,14.00
2023-10-12T03:21:24.519Z,15.70
2023-10-12T03:26:26.735Z,15.90
2023-10-12T03:31:46.052Z,13.20
2023-10-12T03:36:50.973Z,20.00
2023-10-12T03:41:53.077Z,14.50
2023-10-12T03:52:03.688Z,17.80
2023-10-12T03:57:20.731Z,18.10
2023-10-12T04:02:22.724Z,19.90
2023-10-12T04:07:39.089Z,15.00
2023-10-12T04:12:55.556Z,14.10
2023-10-12T04:18:01.090Z,15.40
2023-10-12T04:23:26.281Z,14.30
2023-10-12T04:28:33.955Z,16.50
2023-10-12T04:33:45.687Z,17.00
2023-10-12T04:38:57.702Z,14.90
2023-10-12T04:44:18.871Z,15.40
2023-10-12T04:49:20.976Z,15.10
2023-10-12T04:54:25.831Z,15.70
2023-10-12T04:59:31.935Z,12.60
2023-10-12T05:04:42.999Z,11.70
2023-10-12T05:09:50.841Z,15.70
2023-10-12T05:15:02.529Z,14.00
2023-10-12T05:20:05.063Z,13.00
2023-10-12T05:25:07.869Z,12.10
2023-10-12T05:30:20.285Z,18.50
2023-10-12T05:35:42.295Z,17.50
2023-10-12T05:40:54.090Z,10.60
2023-10-12T05:45:56.157Z,16.40
2023-10-12T05:56:00.571Z,16.60
2023-10-12T06:01:09.984Z,14.30
2023-10-12T06:06:16.372Z,12.90
2023-10-12T06:11:19.389Z,18.20
2023-10-12T06:16:22.722Z,16.10
2023-10-12T06:21:25.331Z,14.20
2023-10-12T06:26:30.153Z,23.20
2023-10-12T06:31:32.362Z,18.10
2023-10-12T06:36:40.095Z,15.20
2023-10-12T06:41:45.331Z,13.40
2023-10-12T06:46:50.366Z,12.00
2023-10-12T06:51:56.307Z,14.30
2023-10-12T06:57:18.905Z,16.60
2023-10-12T07:02:25.575Z,16.30
2023-10-12T07:07:38.119Z,14.10
2023-10-12T07:12:49.397Z,15.30
2023-10-12T07:17:52.239Z,11.50
2023-10-12T07:22:57.161Z,16.10
2023-10-12T07:28:01.953Z,16.80
2023-10-12T07:33:08.641Z,17.60
2023-10-12T07:38:15.509Z,15.70
2023-10-12T07:43:19.793Z,19.70
2023-10-12T07:48:32.840Z,10.90
2023-10-12T07:53:38.282Z,16.10
2023-10-12T07:58:43.317Z,11.90
2023-10-12T08:03:52.183Z,15.50
2023-10-12T08:09:03.630Z,14.10
2023-10-12T08:14:40.543Z,14.80
2023-10-12T08:19:45.570Z,13.20
2023-10-12T08:24:47.696Z,13.50
2023-10-12T08:29:49.597Z,14.30
2023-10-12T08:35:00.223Z,12.00
2023-10-12T08:40:20.484Z,14.20
2023-10-12T08:45:28.048Z,16.00
2023-10-12T08:50:48.456Z,13.30
2023-10-12T08:55:53.273Z,14.00
2023-10-12T09:01:01.146Z,18.50
2023-10-12T09:06:08.758Z,18.00
2023-10-12T09:11:10.572Z,15.80
2023-10-12T09:16:15.458Z,13.10
2023-10-12T09:21:22.523Z,17.80
2023-10-12T09:26:31.752Z,13.10
2023-10-12T09:31:41.123Z,13.90
2023-10-12T09:36:56.409Z,16.40
2023-10-12T09:42:11.111Z,13.00
2023-10-12T09:47:23.273Z,16.90
2023-10-12T09:52:41.801Z,17.90
2023-10-12T09:57:51.419Z,15.10
2023-10-12T10:02:57.104Z,15.50
2023-10-12T10:08:05.176Z,17.50
2023-10-12T10:13:11.599Z,14.30
2023-10-12T10:18:17.709Z,14.60
2023-10-12T10:23:20.989Z,12.20
2023-10-12T10:28:33.445Z,13.70
2023-10-12T10:33:38.908Z,10.60
2023-10-12T10:38:55.216Z,16.40
2023-10-12T10:43:58.148Z,17.20
2023-10-12T10:54:13.747Z,15.50
2023-10-12T10:59:19.452Z,13.30
2023-10-12T11:04:34.768Z,10.30
2023-10-12T11:09:52.987Z,17.00
2023-10-12T11:15:12.337Z,13.80
2023-10-12T11:20:45.514Z,14.70
2023-10-12T11:25:48.434Z,17.10
2023-10-12T11:30:53.932Z,12.30
2023-10-12T11:36:01.999Z,15.30
2023-10-12T11:41:18.259Z,16.60
2023-10-12T11:46:20.920Z,15.50
2023-10-12T11:51:23.159Z,17.60
2023-10-12T11:56:26.805Z,15.90
2023-10-12T12:01:29.979Z,14.00
2023-10-12T12:06:33.640Z,18.70
2023-10-12T12:11:39.261Z,12.80
2023-10-12T12:16:41.090Z,15.70
2023-10-12T12:21:43.618Z,14.10
2023-10-12T12:26:47.846Z,13.50
2023-10-12T12:31:52.288Z,15.10
2023-10-12T12:36:55.942Z,12.50
2023-10-12T12:41:57.769Z,13.50
2023-10-12T12:47:00.949Z,15.10
2023-10-12T12:52:04.310Z,14.20
2023-10-12T12:57:06.337Z,11.20
2023-10-12T13:02:08.766Z,13.50
2023-10-12T13:07:10.781Z,18.20
2023-10-12T13:12:12.738Z,12.90
2023-10-12T13:17:17.161Z,16.60
2023-10-12T13:22:19.750Z,14.30
2023-10-12T13:27:23.753Z,13.70
2023-10-12T13:32:27.929Z,16.90
2023-10-12T13:37:31.888Z,14.30
2023-10-12T13:42:36.070Z,14.40
2023-10-12T13:47:37.859Z,14.80
2023-10-12T13:52:40.141Z,14.90
2023-10-12T13:57:52.059Z,14.30
2023-10-12T14:02:58.424Z,20.00
2023-10-12T14:08:00.396Z,14.50
2023-10-12T14:13:04.494Z,13.50
2023-10-12T14:18:06.704Z,14.70
2023-10-12T14:23:08.546Z,19.80
2023-10-12T14:28:12.891Z,17.40
2023-10-12T14:33:16.614Z,18.20
2023-10-12T14:38:18.584Z,17.50
2023-10-12T14:43:24.942Z,18.60
2023-10-12T14:48:27.603Z,18.40
2023-10-12T14:53:29.651Z,18.00
2023-10-12T14:58:32.672Z,21.50
2023-10-12T15:03:36.077Z,15.70
2023-10-12T15:08:38.104Z,18.70
2023-10-12T15:13:42.134Z,26.50
2023-10-12T15:18:44.318Z,21.30
2023-10-12T15:23:46.408Z,14.50
2023-10-12T15:33:52.590Z,17.70
2023-10-12T15:43:56.935Z,20.40
2023-10-12T15:49:02.104Z,25.00
2023-10-12T15:54:06.781Z,19.30
2023-10-12T15:59:11.135Z,25.20
2023-10-12T16:04:13.365Z,22.60
2023-10-12T16:09:22.127Z,29.80
2023-10-12T16:14:27.032Z,23.20
2023-10-12T16:19:28.994Z,29.70
2023-10-12T16:24:30.893Z,18.40
2023-10-12T16:34:51.795Z,24.70
2023-10-12T16:39:55.850Z,21.30
2023-10-12T16:45:02.592Z,19.10
2023-10-12T16:50:06.050Z,19.10
2023-10-12T16:55:11.049Z,20.20
2023-10-12T17:00:16.631Z,22.80
2023-10-12T17:05:23.446Z,22.70
2023-10-12T17:10:34.923Z,23.10
2023-10-12T17:15:41.050Z,28.60
2023-10-12T17:20:43.019Z,24.90
2023-10-12T17:25:48.525Z,74.70
2023-10-12T17:30:50.546Z,27.60
2023-10-12T17:35:53.196Z,29.60
2023-10-12T17:40:55.052Z,34.20
2023-10-12T17:45:58.839Z,28.10
2023-10-12T17:51:04.756Z,25.40
2023-10-12T17:56:13.351Z,27.20
2023-10-12T18:01:15.461Z,29.40
2023-10-12T18:06:20.342Z,28.70
2023-10-12T18:11:25.468Z,31.50
2023-10-12T18:16:34.301Z,32.50
2023-10-12T18:21:38.077Z,30.60
2023-10-12T18:26:40.414Z,26.80
2023-10-12T18:31:42.402Z,32.70
2023-10-12T18:36:55.079Z,19.20
2023-10-12T18:42:00.233Z,22.00
2023-10-12T18:47:02.746Z,26.10
2023-10-12T18:52:04.737Z,21.80
2023-10-12T18:57:06.861Z,21.90
2023-10-12T19:02:08.880Z,18.00
2023-10-12T19:07:11.119Z,17.70
2023-10-12T19:12:14.265Z,17.30
2023-10-12T19:17:16.889Z,22.40
2023-10-12T19:22:19.108Z,21.60
2023-10-12T19:27:21.124Z,21.30
2023-10-12T19:32:25.810Z,36.70
2023-10-12T19:37:28.163Z,23.70
2023-10-12T19:42:30.145Z,25.90
2023-10-12T19:52:36.931Z,23.60
2023-10-12T19:57:42.683Z,28.60
2023-10-12T20:02:46.379Z,19.70
2023-10-12T20:07:48.379Z,23.60
2023-10-12T20:12:50.296Z,29.80
2023-10-12T20:17:54.082Z,32.00
2023-10-12T20:22:57.245Z,35.50
2023-10-12T20:27:59.223Z,36.20
2023-10-12T20:33:03.021Z,35.60
2023-10-12T20:38:05.703Z,32.70
2023-10-12T20:43:10.060Z,31.10
2023-10-12T20:48:13.292Z,40.50
2023-10-12T20:53:16.667Z,36.30
2023-10-12T20:58:41.111Z,28.80
2023-10-12T21:03:42.936Z,40.10
2023-10-12T21:08:50.708Z,40.80
2023-10-12T21:13:53.841Z,41.70
2023-10-12T21:19:06.623Z,34.20
2023-10-12T21:24:14.041Z,42.50
2023-10-12T21:29:19.767Z,39.30
2023-10-12T21:34:25.860Z,37.10
2023-10-12T21:39:37.083Z,33.70
2023-10-12T21:44:41.123Z,41.60
2023-10-12T21:49:45.279Z,39.30
2023-10-12T21:54:49.604Z,31.60
2023-10-12T21:59:51.579Z,43.50
2023-10-12T22:04:53.816Z,29.60
2023-10-12T22:10:04.833Z,29.50
2023-10-12T22:15:20.443Z,32.10
2023-10-12T22:20:22.277Z,35.30
2023-10-12T22:25:24.282Z,29.20
2023-10-12T22:30:26.571Z,35.10
2023-10-12T22:40:32.601Z,29.90
2023-10-12T22:45:34.504Z,35.10
2023-10-12T22:50:36.560Z,26.90
2023-10-12T23:00:40.975Z,35.20
2023-10-12T23:05:42.867Z,35.70
2023-10-12T23:10:47.816Z,32.40
2023-10-12T23:15:50.164Z,36.50
2023-10-12T23:21:04.897Z,40.70
2023-10-12T23:26:08.557Z,35.60
2023-10-12T23:31:16.603Z,39.60
2023-10-12T23:41:23.346Z,37.90
2023-10-12T23:46:27.332Z,41.70
2023-10-12T23:51:29.600Z,36.90
2023-10-12T23:56:31.404Z,44.10
